sensor_id;sensor_type;location;lat;lon;timestamp;pressure;altitude;pressure_sealevel;temperature;humidity
967;BME280;56108;48.730;9.304;2024-02-16T00:01:42;97406.97;;;9.28;100.00
967;BME280;56108;48.730;9.304;2024-02-16T00:03:53;97411.28;;;9.56;100.00
967;BME280;56108;48.730;9.304;2024-02-16T00:06:02;97420.19;;;9.81;100.00
967;BME280;56108;48.730;9.304;2024-02-16T00:08:10;97413.41;;;9.89;100.00
967;BME280;56108;48.730;9.304;2024-02-16T00:10:18;97411.38;;;9.80;100.00
967;BME280;56108;48.730;9.304;2024-02-16T00:12:26;97405.66;;;9.74;100.00
967;BME280;56108;48.730;9.304;2024-02-16T00:14:35;97404.47;;;9.65;100.00
967;BME280;56108;48.730;9.304;2024-02-16T00:16:44;97408.41;;;9.72;100.00
967;BME280;56108;48.730;9.304;2024-02-16T00:18:55;97401.38;;;9.97;100.00
967;BME280;56108;48.730;9.304;2024-02-16T00:21:01;97413.19;;;9.80;100.00
967;BME280;56108;48.730;9.304;2024-02-16T00:23:10;97405.66;;;9.74;100.00
967;BME280;56108;48.730;9.304;2024-02-16T00:25:18;97406.81;;;9.70;100.00
967;BME280;56108;48.730;9.304;2024-02-16T00:27:26;97404.91;;;9.72;100.00
967;BME280;56108;48.730;9.304;2024-02-16T00:29:34;97402.56;;;9.67;100.00
967;BME280;56108;48.730;9.304;2024-02-16T00:31:43;97406.28;;;9.77;100.00
967;BME280;56108;48.730;9.304;2024-02-16T00:33:49;97408.31;;;9.74;100.00
967;BME280;56108;48.730;9.304;2024-02-16T00:36:00;97403.63;;;9.64;100.00
967;BME280;56108;48.730;9.304;2024-02-16T00:38:09;97398.84;;;9.70;100.00
967;BME280;56108;48.730;9.304;2024-02-16T00:40:17;97397.78;;;9.72;100.00
967;BME280;56108;48.730;9.304;2024-02-16T00:42:25;97399.78;;;9.68;100.00
967;BME280;56108;48.730;9.304;2024-02-16T00:44:36;97394.91;;;9.62;100.00
967;BME280;56108;48.730;9.304;2024-02-16T00:46:44;97397.56;;;9.62;100.00
967;BME280;56108;48.730;9.304;2024-02-16T00:48:52;97396.06;;;9.84;100.00
967;BME280;56108;48.730;9.304;2024-02-16T00:51:04;97398.84;;;9.70;100.00
967;BME280;56108;48.730;9.304;2024-02-16T00:53:13;97395.56;;;9.66;100.00
967;BME280;56108;48.730;9.304;2024-02-16T00:55:24;97396.06;;;9.58;100.00
967;BME280;56108;48.730;9.304;2024-02-16T00:57:32;97395.03;;;9.61;100.00
967;BME280;56108;48.730;9.304;2024-02-16T00:59:40;97400.84;;;9.53;100.00
967;BME280;56108;48.730;9.304;2024-02-16T01:01:48;97397.53;;;9.50;100.00
967;BME280;56108;48.730;9.304;2024-02-16T01:03:56;97398.84;;;9.57;100.00
967;BME280;56108;48.730;9.304;2024-02-16T01:06:08;97390.78;;;9.71;100.00
967;BME280;56108;48.730;9.304;2024-02-16T01:08:17;97395.34;;;9.82;100.00
967;BME280;56108;48.730;9.304;2024-02-16T01:10:25;97395.75;;;9.63;100.00
967;BME280;56108;48.730;9.304;2024-02-16T01:12:33;97393.19;;;9.49;100.00
967;BME280;56108;48.730;9.304;2024-02-16T01:14:42;97393.50;;;9.70;100.00
967;BME280;56108;48.730;9.304;2024-02-16T01:16:50;97400.88;;;9.66;100.00
967;BME280;56108;48.730;9.304;2024-02-16T01:18:56;97397.69;;;9.61;100.00
967;BME280;56108;48.730;9.304;2024-02-16T01:21:07;97400.19;;;9.50;100.00
967;BME280;56108;48.730;9.304;2024-02-16T01:23:15;97392.44;;;9.47;100.00
967;BME280;56108;48.730;9.304;2024-02-16T01:25:21;97393.00;;;9.52;100.00
967;BME280;56108;48.730;9.304;2024-02-16T01:27:29;97399.38;;;9.62;100.00
967;BME280;56108;48.730;9.304;2024-02-16T01:29:38;97404.03;;;9.46;100.00
967;BME280;56108;48.730;9.304;2024-02-16T01:31:46;97393.59;;;9.43;100.00
967;BME280;56108;48.730;9.304;2024-02-16T01:33:54;97389.59;;;9.75;100.00
967;BME280;56108;48.730;9.304;2024-02-16T01:36:03;97392.56;;;9.58;100.00
967;BME280;56108;48.730;9.304;2024-02-16T01:38:14;97388.63;;;9.51;100.00
967;BME280;56108;48.730;9.304;2024-02-16T01:40:22;97395.22;;;9.45;100.00
967;BME280;56108;48.730;9.304;2024-02-16T01:42:31;97404.44;;;9.39;100.00
967;BME280;56108;48.730;9.304;2024-02-16T01:44:39;97394.69;;;9.40;100.00
967;BME280;56108;48.730;9.304;2024-02-16T01:46:47;97378.94;;;9.50;100.00
967;BME280;56108;48.730;9.304;2024-02-16T01:48:56;97384.91;;;9.79;100.00
967;BME280;56108;48.730;9.304;2024-02-16T01:51:05;97390.84;;;9.44;100.00
967;BME280;56108;48.730;9.304;2024-02-16T01:53:17;97377.38;;;9.34;100.00
967;BME280;56108;48.730;9.304;2024-02-16T01:55:26;97379.13;;;9.21;100.00
967;BME280;56108;48.730;9.304;2024-02-16T01:57:34;97385.94;;;9.25;100.00
967;BME280;56108;48.730;9.304;2024-02-16T01:59:40;97387.75;;;9.25;100.00
967;BME280;56108;48.730;9.304;2024-02-16T02:01:48;97380.94;;;9.33;100.00
967;BME280;56108;48.730;9.304;2024-02-16T02:03:56;97389.75;;;9.34;100.00
967;BME280;56108;48.730;9.304;2024-02-16T02:06:05;97389.22;;;9.16;100.00
967;BME280;56108;48.730;9.304;2024-02-16T02:08:17;97383.66;;;8.94;100.00
967;BME280;56108;48.730;9.304;2024-02-16T02:10:25;97383.59;;;8.81;100.00
967;BME280;56108;48.730;9.304;2024-02-16T02:12:33;97377.03;;;8.86;100.00
967;BME280;56108;48.730;9.304;2024-02-16T02:14:41;97369.47;;;8.80;100.00
967;BME280;56108;48.730;9.304;2024-02-16T02:16:52;97372.91;;;8.95;100.00
967;BME280;56108;48.730;9.304;2024-02-16T02:19:03;97366.06;;;8.78;100.00
967;BME280;56108;48.730;9.304;2024-02-16T02:21:13;97369.44;;;8.68;100.00
967;BME280;56108;48.730;9.304;2024-02-16T02:23:25;97360.63;;;8.67;100.00
967;BME280;56108;48.730;9.304;2024-02-16T02:25:33;97354.22;;;8.57;100.00
967;BME280;56108;48.730;9.304;2024-02-16T02:27:40;97352.06;;;8.49;100.00
967;BME280;56108;48.730;9.304;2024-02-16T02:29:48;97358.72;;;8.69;100.00
967;BME280;56108;48.730;9.304;2024-02-16T02:31:56;97349.22;;;8.52;100.00
967;BME280;56108;48.730;9.304;2024-02-16T02:34:01;97341.56;;;8.48;100.00
967;BME280;56108;48.730;9.304;2024-02-16T02:36:11;97346.28;;;8.57;100.00
967;BME280;56108;48.730;9.304;2024-02-16T02:38:19;97336.09;;;8.63;100.00
967;BME280;56108;48.730;9.304;2024-02-16T02:40:30;97340.41;;;8.52;100.00
967;BME280;56108;48.730;9.304;2024-02-16T02:42:38;97342.91;;;8.68;100.00
967;BME280;56108;48.730;9.304;2024-02-16T02:44:46;97345.44;;;8.69;100.00
967;BME280;56108;48.730;9.304;2024-02-16T02:46:55;97351.34;;;8.60;100.00
967;BME280;56108;48.730;9.304;2024-02-16T02:49:03;97346.28;;;8.57;100.00
967;BME280;56108;48.730;9.304;2024-02-16T02:51:11;97349.53;;;8.60;100.00
967;BME280;56108;48.730;9.304;2024-02-16T02:53:20;97343.50;;;8.58;100.00
967;BME280;56108;48.730;9.304;2024-02-16T02:55:30;97346.47;;;8.54;100.00
967;BME280;56108;48.730;9.304;2024-02-16T02:57:38;97343.09;;;8.65;100.00
967;BME280;56108;48.730;9.304;2024-02-16T02:59:47;97341.22;;;8.67;100.00
967;BME280;56108;48.730;9.304;2024-02-16T03:01:55;97335.03;;;8.66;100.00
967;BME280;56108;48.730;9.304;2024-02-16T03:04:03;97334.53;;;8.74;100.00
967;BME280;56108;48.730;9.304;2024-02-16T03:06:11;97335.03;;;8.66;100.00
967;BME280;56108;48.730;9.304;2024-02-16T03:08:19;97336.84;;;8.66;100.00
967;BME280;56108;48.730;9.304;2024-02-16T03:10:30;97331.75;;;8.62;100.00
967;BME280;56108;48.730;9.304;2024-02-16T03:12:40;97327.63;;;8.71;100.00
967;BME280;56108;48.730;9.304;2024-02-16T03:14:49;97323.94;;;8.74;100.00
967;BME280;56108;48.730;9.304;2024-02-16T03:16:57;97320.88;;;8.80;100.00
967;BME280;56108;48.730;9.304;2024-02-16T03:19:06;97322.28;;;8.58;100.00
967;BME280;56108;48.730;9.304;2024-02-16T03:21:15;97328.97;;;8.51;100.00
967;BME280;56108;48.730;9.304;2024-02-16T03:23:24;97316.72;;;8.49;100.00
967;BME280;56108;48.730;9.304;2024-02-16T03:25:35;97316.41;;;8.41;100.00
967;BME280;56108;48.730;9.304;2024-02-16T03:27:43;97315.16;;;8.32;100.00
967;BME280;56108;48.730;9.304;2024-02-16T03:29:51;97311.28;;;8.38;100.00
967;BME280;56108;48.730;9.304;2024-02-16T03:32:00;97312.03;;;8.40;100.00
967;BME280;56108;48.730;9.304;2024-02-16T03:34:08;97314.19;;;8.33;100.00
967;BME280;56108;48.730;9.304;2024-02-16T03:36:16;97319.53;;;8.19;100.00
967;BME280;56108;48.730;9.304;2024-02-16T03:38:22;97320.63;;;8.29;100.00
967;BME280;56108;48.730;9.304;2024-02-16T03:40:30;97323.59;;;8.39;100.00
967;BME280;56108;48.730;9.304;2024-02-16T03:42:41;97325.31;;;8.25;100.00
967;BME280;56108;48.730;9.304;2024-02-16T03:44:49;97327.00;;;8.26;100.00
967;BME280;56108;48.730;9.304;2024-02-16T03:46:57;97326.84;;;8.15;100.00
967;BME280;56108;48.730;9.304;2024-02-16T03:49:05;97325.50;;;8.22;100.00
967;BME280;56108;48.730;9.304;2024-02-16T03:51:13;97324.19;;;8.15;100.00
967;BME280;56108;48.730;9.304;2024-02-16T03:53:19;97330.63;;;8.11;100.00
967;BME280;56108;48.730;9.304;2024-02-16T03:55:27;97319.78;;;8.01;100.00
967;BME280;56108;48.730;9.304;2024-02-16T03:57:41;97321.56;;;8.15;100.00
967;BME280;56108;48.730;9.304;2024-02-16T03:59:49;97332.78;;;8.19;100.00
967;BME280;56108;48.730;9.304;2024-02-16T04:01:57;97335.72;;;8.14;100.00
967;BME280;56108;48.730;9.304;2024-02-16T04:04:05;97333.88;;;8.02;100.00
967;BME280;56108;48.730;9.304;2024-02-16T04:06:14;97336.06;;;7.95;100.00
967;BME280;56108;48.730;9.304;2024-02-16T04:08:22;97333.59;;;7.92;100.00
967;BME280;56108;48.730;9.304;2024-02-16T04:10:30;97328.00;;;7.97;100.00
967;BME280;56108;48.730;9.304;2024-02-16T04:12:41;97329.34;;;7.90;100.00
967;BME280;56108;48.730;9.304;2024-02-16T04:14:49;97321.78;;;7.83;100.00
967;BME280;56108;48.730;9.304;2024-02-16T04:16:57;97324.13;;;7.88;100.00
967;BME280;56108;48.730;9.304;2024-02-16T04:19:05;97326.03;;;7.86;100.00
967;BME280;56108;48.730;9.304;2024-02-16T04:21:14;97322.16;;;7.92;100.00
967;BME280;56108;48.730;9.304;2024-02-16T04:23:23;97317.22;;;8.00;100.00
967;BME280;56108;48.730;9.304;2024-02-16T04:25:31;97333.19;;;7.98;100.00
967;BME280;56108;48.730;9.304;2024-02-16T04:27:43;97324.91;;;7.90;100.00
967;BME280;56108;48.730;9.304;2024-02-16T04:29:51;97324.78;;;7.92;100.00
967;BME280;56108;48.730;9.304;2024-02-16T04:32:00;97329.13;;;7.93;100.00
967;BME280;56108;48.730;9.304;2024-02-16T04:34:08;97335.50;;;7.90;100.00
967;BME280;56108;48.730;9.304;2024-02-16T04:36:17;97334.94;;;7.85;100.00
967;BME280;56108;48.730;9.304;2024-02-16T04:38:25;97342.31;;;7.94;100.00
967;BME280;56108;48.730;9.304;2024-02-16T04:40:36;97344.28;;;8.05;100.00
967;BME280;56108;48.730;9.304;2024-02-16T04:42:48;97355.63;;;8.07;100.00
967;BME280;56108;48.730;9.304;2024-02-16T04:44:56;97359.56;;;8.14;100.00
967;BME280;56108;48.730;9.304;2024-02-16T04:47:08;97364.25;;;8.10;100.00
967;BME280;56108;48.730;9.304;2024-02-16T04:49:14;97358.84;;;8.12;100.00
967;BME280;56108;48.730;9.304;2024-02-16T04:51:23;97357.25;;;7.95;100.00
967;BME280;56108;48.730;9.304;2024-02-16T04:53:31;97354.41;;;7.98;100.00
967;BME280;56108;48.730;9.304;2024-02-16T04:55:39;97364.25;;;8.10;100.00
967;BME280;56108;48.730;9.304;2024-02-16T04:57:50;97360.66;;;8.11;100.00
967;BME280;56108;48.730;9.304;2024-02-16T04:59:58;97363.00;;;8.16;100.00
967;BME280;56108;48.730;9.304;2024-02-16T05:02:06;97355.63;;;8.07;100.00
967;BME280;56108;48.730;9.304;2024-02-16T05:04:15;97354.97;;;8.03;100.00
967;BME280;56108;48.730;9.304;2024-02-16T05:06:24;97351.63;;;8.14;100.00
967;BME280;56108;48.730;9.304;2024-02-16T05:08:33;97352.97;;;8.07;100.00
967;BME280;56108;48.730;9.304;2024-02-16T05:10:41;97360.94;;;8.07;100.00
967;BME280;56108;48.730;9.304;2024-02-16T05:12:52;97360.53;;;8.13;100.00
967;BME280;56108;48.730;9.304;2024-02-16T05:15:00;97356.09;;;8.14;100.00
967;BME280;56108;48.730;9.304;2024-02-16T05:17:09;97365.06;;;8.25;100.00
967;BME280;56108;48.730;9.304;2024-02-16T05:19:17;97365.84;;;8.13;100.00
967;BME280;56108;48.730;9.304;2024-02-16T05:21:26;97368.19;;;8.18;100.00
967;BME280;56108;48.730;9.304;2024-02-16T05:23:34;97366.47;;;8.31;100.00
967;BME280;56108;48.730;9.304;2024-02-16T05:25:43;97373.66;;;8.29;100.00
967;BME280;56108;48.730;9.304;2024-02-16T05:27:54;97379.53;;;8.34;100.00
967;BME280;56108;48.730;9.304;2024-02-16T05:30:03;97382.69;;;8.41;100.00
967;BME280;56108;48.730;9.304;2024-02-16T05:32:12;97379.53;;;8.34;100.00
967;BME280;56108;48.730;9.304;2024-02-16T05:34:20;97383.13;;;8.47;100.00
967;BME280;56108;48.730;9.304;2024-02-16T05:36:26;97387.22;;;8.39;100.00
967;BME280;56108;48.730;9.304;2024-02-16T05:38:40;97380.13;;;8.39;100.00
967;BME280;56108;48.730;9.304;2024-02-16T05:40:48;97383.13;;;8.47;100.00
967;BME280;56108;48.730;9.304;2024-02-16T05:43:04;97385.03;;;8.45;100.00
967;BME280;56108;48.730;9.304;2024-02-16T05:45:12;97387.38;;;8.50;100.00
967;BME280;56108;48.730;9.304;2024-02-16T05:47:19;97400.56;;;8.51;100.00
967;BME280;56108;48.730;9.304;2024-02-16T05:49:27;97392.53;;;8.39;100.00
967;BME280;56108;48.730;9.304;2024-02-16T05:51:36;97387.78;;;8.44;100.00
967;BME280;56108;48.730;9.304;2024-02-16T05:53:44;97391.56;;;8.40;100.00
967;BME280;56108;48.730;9.304;2024-02-16T05:55:53;97395.28;;;8.37;100.00
967;BME280;56108;48.730;9.304;2024-02-16T05:58:03;97398.47;;;8.28;100.00
967;BME280;56108;48.730;9.304;2024-02-16T06:00:13;97392.16;;;8.30;100.00
967;BME280;56108;48.730;9.304;2024-02-16T06:02:21;97387.03;;;8.27;100.00
967;BME280;56108;48.730;9.304;2024-02-16T06:04:31;97389.03;;;8.38;100.00
967;BME280;56108;48.730;9.304;2024-02-16T06:06:39;97391.94;;;8.33;100.00
967;BME280;56108;48.730;9.304;2024-02-16T06:08:47;97393.38;;;8.39;100.00
967;BME280;56108;48.730;9.304;2024-02-16T06:10:55;97395.94;;;8.26;100.00
967;BME280;56108;48.730;9.304;2024-02-16T06:13:06;97407.97;;;8.18;100.00
967;BME280;56108;48.730;9.304;2024-02-16T06:15:14;97405.53;;;8.15;100.00
967;BME280;56108;48.730;9.304;2024-02-16T06:17:20;97406.81;;;8.22;100.00
967;BME280;56108;48.730;9.304;2024-02-16T06:19:28;97405.41;;;8.30;100.00
967;BME280;56108;48.730;9.304;2024-02-16T06:21:37;97410.22;;;8.24;100.00
967;BME280;56108;48.730;9.304;2024-02-16T06:23:45;97410.22;;;8.24;100.00
967;BME280;56108;48.730;9.304;2024-02-16T06:25:53;97409.19;;;8.26;100.00
967;BME280;56108;48.730;9.304;2024-02-16T06:28:01;97411.75;;;8.14;100.00
967;BME280;56108;48.730;9.304;2024-02-16T06:30:13;97420.38;;;8.17;100.00
967;BME280;56108;48.730;9.304;2024-02-16T06:32:21;97424.72;;;8.18;100.00
967;BME280;56108;48.730;9.304;2024-02-16T06:34:30;97423.69;;;8.21;100.00
967;BME280;56108;48.730;9.304;2024-02-16T06:36:38;97414.88;;;8.20;100.00
967;BME280;56108;48.730;9.304;2024-02-16T06:38:46;97420.75;;;8.25;100.00
967;BME280;56108;48.730;9.304;2024-02-16T06:40:56;97416.94;;;8.29;100.00
967;BME280;56108;48.730;9.304;2024-02-16T06:43:04;97415.44;;;8.25;100.00
967;BME280;56108;48.730;9.304;2024-02-16T06:45:15;97422.63;;;8.09;100.00
967;BME280;56108;48.730;9.304;2024-02-16T06:47:23;97428.53;;;8.00;100.00
967;BME280;56108;48.730;9.304;2024-02-16T06:49:31;97428.69;;;7.97;100.00
967;BME280;56108;48.730;9.304;2024-02-16T06:51:39;97430.03;;;7.90;100.00
967;BME280;56108;48.730;9.304;2024-02-16T06:53:50;97425.03;;;7.99;100.00
967;BME280;56108;48.730;9.304;2024-02-16T06:55:58;97431.56;;;7.94;100.00
967;BME280;56108;48.730;9.304;2024-02-16T06:58:07;97430.78;;;7.92;100.00
967;BME280;56108;48.730;9.304;2024-02-16T07:00:18;97433.91;;;7.84;100.00
967;BME280;56108;48.730;9.304;2024-02-16T07:02:27;97435.97;;;7.93;100.00
967;BME280;56108;48.730;9.304;2024-02-16T07:04:39;97442.78;;;7.97;100.00
967;BME280;56108;48.730;9.304;2024-02-16T07:06:45;97439.69;;;7.91;100.00
967;BME280;56108;48.730;9.304;2024-02-16T07:08:53;97442.31;;;7.91;100.00
967;BME280;56108;48.730;9.304;2024-02-16T07:11:02;97445.84;;;8.05;100.00
967;BME280;56108;48.730;9.304;2024-02-16T07:13:10;97446.28;;;7.98;100.00
967;BME280;56108;48.730;9.304;2024-02-16T07:15:21;97454.75;;;8.04;100.00
967;BME280;56108;48.730;9.304;2024-02-16T07:17:29;97454.94;;;8.16;100.00
967;BME280;56108;48.730;9.304;2024-02-16T07:19:39;97465.34;;;8.04;100.00
967;BME280;56108;48.730;9.304;2024-02-16T07:21:47;97473.47;;;8.16;100.00
967;BME280;56108;48.730;9.304;2024-02-16T07:23:57;97472.72;;;8.28;100.00
967;BME280;56108;48.730;9.304;2024-02-16T07:26:05;97469.13;;;8.15;100.00
967;BME280;56108;48.730;9.304;2024-02-16T07:28:13;97466.94;;;8.21;100.00
967;BME280;56108;48.730;9.304;2024-02-16T07:30:24;97470.34;;;8.23;100.00
967;BME280;56108;48.730;9.304;2024-02-16T07:32:48;97471.00;;;8.27;100.00
967;BME280;56108;48.730;9.304;2024-02-16T07:34:57;97473.47;;;8.44;100.00
967;BME280;56108;48.730;9.304;2024-02-16T07:37:05;97481.53;;;8.57;100.00
967;BME280;56108;48.730;9.304;2024-02-16T07:39:14;97481.72;;;8.68;100.00
967;BME280;56108;48.730;9.304;2024-02-16T07:41:23;97478.53;;;8.76;100.00
967;BME280;56108;48.730;9.304;2024-02-16T07:43:32;97485.22;;;8.96;100.00
967;BME280;56108;48.730;9.304;2024-02-16T07:45:43;97488.06;;;8.93;100.00
967;BME280;56108;48.730;9.304;2024-02-16T07:47:51;97495.09;;;8.94;100.00
967;BME280;56108;48.730;9.304;2024-02-16T07:49:57;97492.91;;;9.00;100.00
967;BME280;56108;48.730;9.304;2024-02-16T07:52:05;97492.06;;;9.00;100.00
967;BME280;56108;48.730;9.304;2024-02-16T07:54:14;97500.75;;;9.02;100.00
967;BME280;56108;48.730;9.304;2024-02-16T07:56:22;97503.13;;;9.06;100.00
967;BME280;56108;48.730;9.304;2024-02-16T07:58:30;97510.03;;;9.09;100.00
967;BME280;56108;48.730;9.304;2024-02-16T08:00:39;97504.03;;;9.20;100.00
967;BME280;56108;48.730;9.304;2024-02-16T08:02:49;97510.81;;;9.24;100.00
967;BME280;56108;48.730;9.304;2024-02-16T08:04:58;97511.03;;;9.21;100.00
967;BME280;56108;48.730;9.304;2024-02-16T08:07:07;97508.94;;;9.26;100.00
967;BME280;56108;48.730;9.304;2024-02-16T08:09:15;97507.03;;;9.28;100.00
967;BME280;56108;48.730;9.304;2024-02-16T08:11:23;97508.09;;;9.25;100.00
967;BME280;56108;48.730;9.304;2024-02-16T08:13:32;97512.59;;;9.37;100.00
967;BME280;56108;48.730;9.304;2024-02-16T08:15:40;97505.47;;;9.38;100.00
967;BME280;56108;48.730;9.304;2024-02-16T08:17:52;97515.13;;;9.39;100.00
967;BME280;56108;48.730;9.304;2024-02-16T08:20:04;97519.19;;;9.45;100.00
967;BME280;56108;48.730;9.304;2024-02-16T08:22:16;97518.16;;;9.60;100.00
967;BME280;56108;48.730;9.304;2024-02-16T08:24:24;97515.13;;;9.66;100.00
967;BME280;56108;48.730;9.304;2024-02-16T08:26:32;97521.59;;;9.62;100.00
967;BME280;56108;48.730;9.304;2024-02-16T08:28:43;97515.44;;;9.74;100.00
967;BME280;56108;48.730;9.304;2024-02-16T08:30:51;97516.09;;;9.90;100.00
967;BME280;56108;48.730;9.304;2024-02-16T08:33:02;97515.59;;;9.98;100.00
967;BME280;56108;48.730;9.304;2024-02-16T08:35:11;97520.38;;;10.06;100.00
967;BME280;56108;48.730;9.304;2024-02-16T08:37:19;97515.81;;;10.20;100.00
967;BME280;56108;48.730;9.304;2024-02-16T08:39:27;97515.53;;;10.25;100.00
967;BME280;56108;48.730;9.304;2024-02-16T08:41:36;97521.69;;;10.38;100.00
967;BME280;56108;48.730;9.304;2024-02-16T08:43:44;97524.31;;;10.64;100.00
967;BME280;56108;48.730;9.304;2024-02-16T08:45:52;97523.28;;;10.66;100.00
967;BME280;56108;48.730;9.304;2024-02-16T08:48:04;97523.56;;;10.75;100.00
967;BME280;56108;48.730;9.304;2024-02-16T08:50:12;97527.91;;;10.88;100.00
967;BME280;56108;48.730;9.304;2024-02-16T08:52:21;97530.56;;;10.88;100.00
967;BME280;56108;48.730;9.304;2024-02-16T08:54:29;97533.31;;;11.00;100.00
967;BME280;56108;48.730;9.304;2024-02-16T08:56:37;97530.78;;;11.22;100.00
967;BME280;56108;48.730;9.304;2024-02-16T08:58:44;97532.06;;;11.29;100.00
967;BME280;56108;48.730;9.304;2024-02-16T09:00:53;97540.16;;;11.28;100.00
967;BME280;56108;48.730;9.304;2024-02-16T09:05:27;97530.28;;;11.41;100.00
967;BME280;56108;48.730;9.304;2024-02-16T09:07:35;97541.47;;;11.46;100.00
967;BME280;56108;48.730;9.304;2024-02-16T09:09:44;97540.41;;;11.48;100.00
967;BME280;56108;48.730;9.304;2024-02-16T09:11:52;97539.13;;;11.65;100.00
967;BME280;56108;48.730;9.304;2024-02-16T09:14:00;97539.38;;;11.86;100.00
967;BME280;56108;48.730;9.304;2024-02-16T09:16:06;97542.41;;;11.93;100.00
967;BME280;56108;48.730;9.304;2024-02-16T09:18:17;97537.38;;;12.01;100.00
967;BME280;56108;48.730;9.304;2024-02-16T09:20:25;97539.72;;;12.17;100.00
967;BME280;56108;48.730;9.304;2024-02-16T09:22:33;97545.53;;;12.22;100.00
967;BME280;56108;48.730;9.304;2024-02-16T09:24:42;97536.09;;;12.29;100.00
967;BME280;56108;48.730;9.304;2024-02-16T09:26:52;97541.72;;;12.60;100.00
967;BME280;56108;48.730;9.304;2024-02-16T09:29:00;97552.63;;;12.68;100.00
967;BME280;56108;48.730;9.304;2024-02-16T09:31:09;97558.47;;;12.95;99.04
967;BME280;56108;48.730;9.304;2024-02-16T09:33:19;97562.50;;;13.55;93.69
967;BME280;56108;48.730;9.304;2024-02-16T09:35:27;97577.06;;;14.06;89.79
967;BME280;56108;48.730;9.304;2024-02-16T09:37:36;97584.13;;;14.70;84.49
967;BME280;56108;48.730;9.304;2024-02-16T09:39:44;97604.59;;;15.91;76.79
967;BME280;56108;48.730;9.304;2024-02-16T09:41:53;97619.22;;;17.13;67.81
967;BME280;56108;48.730;9.304;2024-02-16T09:44:02;97646.09;;;18.59;61.00
967;BME280;56108;48.730;9.304;2024-02-16T09:46:11;97674.03;;;19.72;54.79
967;BME280;56108;48.730;9.304;2024-02-16T09:48:22;97679.88;;;19.07;54.55
967;BME280;56108;48.730;9.304;2024-02-16T09:50:30;97680.78;;;20.10;52.68
967;BME280;56108;48.730;9.304;2024-02-16T09:52:40;97689.81;;;19.93;51.80
967;BME280;56108;48.730;9.304;2024-02-16T09:54:49;97685.34;;;20.18;53.13
967;BME280;56108;48.730;9.304;2024-02-16T09:56:57;97711.66;;;21.48;48.53
967;BME280;56108;48.730;9.304;2024-02-16T09:59:05;97689.34;;;19.37;51.80
967;BME280;56108;48.730;9.304;2024-02-16T10:01:18;97695.56;;;19.98;51.21
967;BME280;56108;48.730;9.304;2024-02-16T10:03:32;97690.41;;;18.74;53.97
967;BME280;56108;48.730;9.304;2024-02-16T10:05:41;97680.78;;;17.91;56.07
967;BME280;56108;48.730;9.304;2024-02-16T10:07:49;97678.28;;;18.25;55.93
967;BME280;56108;48.730;9.304;2024-02-16T10:09:57;97680.19;;;18.15;56.63
967;BME280;56108;48.730;9.304;2024-02-16T10:12:06;97686.34;;;18.25;55.61
967;BME280;56108;48.730;9.304;2024-02-16T10:14:15;97666.97;;;16.24;61.75
967;BME280;56108;48.730;9.304;2024-02-16T10:16:25;97663.28;;;16.83;61.61
967;BME280;56108;48.730;9.304;2024-02-16T10:18:36;97665.34;;;17.18;61.35
967;BME280;56108;48.730;9.304;2024-02-16T10:20:44;97684.34;;;18.09;57.53
967;BME280;56108;48.730;9.304;2024-02-16T10:23:02;97703.25;;;20.19;53.00
967;BME280;56108;48.730;9.304;2024-02-16T10:25:11;97711.03;;;19.79;51.43
967;BME280;56108;48.730;9.304;2024-02-16T10:27:19;97731.47;;;21.32;48.28
967;BME280;56108;48.730;9.304;2024-02-16T10:29:27;97746.19;;;21.38;48.54
967;BME280;56108;48.730;9.304;2024-02-16T10:31:35;97739.59;;;21.32;47.40
967;BME280;56108;48.730;9.304;2024-02-16T10:33:43;97733.69;;;21.36;47.56
967;BME280;56108;48.730;9.304;2024-02-16T10:35:52;97732.63;;;21.13;48.61
967;BME280;56108;48.730;9.304;2024-02-16T10:38:01;97742.94;;;20.77;49.30
967;BME280;56108;48.730;9.304;2024-02-16T10:40:12;97747.88;;;21.06;47.77
967;BME280;56108;48.730;9.304;2024-02-16T10:42:24;97727.19;;;20.14;49.53
967;BME280;56108;48.730;9.304;2024-02-16T10:44:34;97716.38;;;19.63;51.81
967;BME280;56108;48.730;9.304;2024-02-16T10:46:43;97712.06;;;19.78;51.85
967;BME280;56108;48.730;9.304;2024-02-16T10:48:54;97709.25;;;19.62;52.71
967;BME280;56108;48.730;9.304;2024-02-16T10:51:02;97730.41;;;19.23;50.63
967;BME280;56108;48.730;9.304;2024-02-16T10:53:14;97725.78;;;19.15;50.75
967;BME280;56108;48.730;9.304;2024-02-16T10:55:23;97718.09;;;18.67;52.88
967;BME280;56108;48.730;9.304;2024-02-16T10:57:31;97714.19;;;18.43;52.81
967;BME280;56108;48.730;9.304;2024-02-16T10:59:44;97717.41;;;18.47;52.95
967;BME280;56108;48.730;9.304;2024-02-16T11:02:00;97708.47;;;18.64;54.12
967;BME280;56108;48.730;9.304;2024-02-16T11:04:11;97704.69;;;18.39;54.83
967;BME280;56108;48.730;9.304;2024-02-16T11:06:21;97705.84;;;18.37;54.96
967;BME280;56108;48.730;9.304;2024-02-16T11:08:38;97708.63;;;18.27;54.46
967;BME280;56108;48.730;9.304;2024-02-16T11:10:56;97705.06;;;18.26;54.91
967;BME280;56108;48.730;9.304;2024-02-16T11:13:05;97698.13;;;18.24;56.33
967;BME280;56108;48.730;9.304;2024-02-16T11:15:13;97705.41;;;17.96;56.34
967;BME280;56108;48.730;9.304;2024-02-16T11:17:23;97696.47;;;17.58;57.13
967;BME280;56108;48.730;9.304;2024-02-16T11:19:35;97698.13;;;17.69;57.21
967;BME280;56108;48.730;9.304;2024-02-16T11:21:55;97687.69;;;17.93;61.08
967;BME280;56108;48.730;9.304;2024-02-16T11:24:07;97694.09;;;18.10;57.38
967;BME280;56108;48.730;9.304;2024-02-16T11:26:17;97690.50;;;18.37;57.69
967;BME280;56108;48.730;9.304;2024-02-16T11:28:25;97687.84;;;18.55;57.95
967;BME280;56108;48.730;9.304;2024-02-16T11:30:34;97702.88;;;18.75;55.79
967;BME280;56108;48.730;9.304;2024-02-16T11:32:46;97700.81;;;18.69;54.35
967;BME280;56108;48.730;9.304;2024-02-16T11:35:04;97714.81;;;18.73;53.78
967;BME280;56108;48.730;9.304;2024-02-16T11:37:14;97714.44;;;18.68;53.05
967;BME280;56108;48.730;9.304;2024-02-16T11:39:24;97702.88;;;18.75;54.60
967;BME280;56108;48.730;9.304;2024-02-16T11:41:30;97703.34;;;18.71;53.95
967;BME280;56108;48.730;9.304;2024-02-16T11:43:39;97710.41;;;18.54;52.86